createdAt,value
2023-01-17T00:00:01.878Z,3.60
2023-01-17T00:02:31.110Z,3.22
2023-01-17T00:05:16.761Z,3.75
2023-01-17T00:08:01.831Z,3.55
2023-01-17T00:10:28.934Z,3.13
2023-01-17T00:12:58.287Z,2.90
2023-01-17T00:15:26.646Z,3.33
2023-01-17T00:17:53.896Z,3.97
2023-01-17T00:20:42.604Z,3.67
2023-01-17T00:23:33.670Z,3.30
2023-01-17T00:26:03.361Z,3.50
2023-01-17T00:28:38.464Z,3.35
2023-01-17T00:31:06.832Z,3.58
2023-01-17T00:33:33.598Z,3.30
2023-01-17T00:38:30.308Z,3.70
2023-01-17T00:41:02.745Z,3.60
2023-01-17T00:43:48.677Z,4.40
2023-01-17T00:46:34.389Z,3.70
2023-01-17T00:49:19.900Z,3.50
2023-01-17T00:52:05.158Z,3.90
2023-01-17T00:54:50.412Z,4.03
2023-01-17T00:57:35.878Z,3.90
2023-01-17T01:00:20.790Z,3.67
2023-01-17T01:03:06.113Z,3.35
2023-01-17T01:05:51.084Z,3.58
2023-01-17T01:08:42.776Z,3.42
2023-01-17T01:11:34.164Z,3.53
2023-01-17T01:14:20.308Z,3.75
2023-01-17T01:17:06.328Z,4.18
2023-01-17T01:19:51.787Z,3.60
2023-01-17T01:22:37.009Z,3.42
2023-01-17T01:25:22.642Z,3.53
2023-01-17T01:28:07.852Z,3.50
2023-01-17T01:30:52.789Z,3.85
2023-01-17T01:33:19.267Z,3.47
2023-01-17T01:35:54.252Z,3.83
2023-01-17T01:38:23.599Z,3.97
2023-01-17T01:40:52.447Z,3.33
2023-01-17T01:43:39.134Z,3.53
2023-01-17T01:46:06.306Z,4.28
2023-01-17T01:48:37.130Z,3.90
2023-01-17T01:51:08.236Z,3.92
2023-01-17T01:53:37.761Z,3.63
2023-01-17T01:56:08.421Z,3.90
2023-01-17T01:58:37.934Z,3.88
2023-01-17T02:01:05.649Z,4.05
2023-01-17T02:03:33.444Z,4.65
2023-01-17T02:06:08.653Z,4.35
2023-01-17T02:08:36.153Z,4.30
2023-01-17T02:11:03.278Z,4.25
2023-01-17T02:13:31.479Z,4.30
2023-01-17T02:16:04.289Z,4.05
2023-01-17T02:18:54.001Z,3.38
2023-01-17T02:21:24.584Z,4.40
2023-01-17T02:24:17.198Z,3.97
2023-01-17T02:27:02.080Z,3.78
2023-01-17T02:29:47.583Z,3.90
2023-01-17T02:32:41.187Z,3.60
2023-01-17T02:35:15.922Z,3.58
2023-01-17T02:37:56.414Z,3.67
2023-01-17T02:40:28.586Z,3.40
2023-01-17T02:43:05.725Z,3.38
2023-01-17T02:45:32.251Z,3.40
2023-01-17T02:47:58.813Z,3.78
2023-01-17T02:50:34.330Z,3.92
2023-01-17T02:53:13.970Z,3.92
2023-01-17T02:55:49.597Z,4.53
2023-01-17T02:58:43.489Z,4.05
2023-01-17T03:01:10.107Z,3.38
2023-01-17T03:04:19.290Z,4.28
2023-01-17T03:09:25.656Z,3.88
2023-01-17T03:11:52.557Z,3.78
2023-01-17T03:14:19.106Z,3.60
2023-01-17T03:16:45.874Z,3.72
2023-01-17T03:21:41.313Z,3.45
2023-01-17T03:24:08.056Z,3.85
2023-01-17T03:29:01.282Z,4.15
2023-01-17T03:31:27.735Z,4.22
2023-01-17T03:33:54.300Z,4.05
2023-01-17T03:36:20.807Z,3.58
2023-01-17T03:38:47.344Z,3.38
2023-01-17T03:41:13.910Z,4.00
2023-01-17T03:43:40.532Z,4.15
2023-01-17T03:46:17.325Z,4.20
2023-01-17T03:48:43.801Z,3.95
2023-01-17T03:51:10.362Z,4.40
2023-01-17T03:53:36.861Z,3.67
2023-01-17T03:56:03.784Z,3.58
2023-01-17T04:00:56.927Z,4.28
2023-01-17T04:05:50.103Z,4.00
2023-01-17T04:08:16.972Z,4.10
2023-01-17T04:10:43.696Z,4.15
2023-01-17T04:13:10.242Z,3.88
2023-01-17T04:15:36.817Z,4.03
2023-01-17T04:18:05.184Z,4.07
2023-01-17T04:20:37.181Z,3.97
2023-01-17T04:23:04.508Z,3.90
2023-01-17T04:25:31.306Z,4.43
2023-01-17T04:30:25.008Z,3.90
2023-01-17T04:32:51.676Z,4.25
2023-01-17T04:35:19.617Z,4.10
2023-01-17T04:37:47.187Z,3.85
2023-01-17T04:40:14.522Z,4.38
2023-01-17T04:42:41.291Z,4.30
2023-01-17T04:47:34.585Z,4.07
2023-01-17T04:50:01.362Z,4.15
2023-01-17T04:54:54.390Z,4.22
2023-01-17T04:57:20.989Z,4.18
2023-01-17T04:59:47.541Z,4.30
2023-01-17T05:02:15.036Z,3.20
2023-01-17T05:04:41.556Z,3.72
2023-01-17T05:07:08.366Z,3.97
2023-01-17T05:12:02.007Z,3.90
2023-01-17T05:14:28.518Z,3.22
2023-01-17T05:16:58.647Z,3.75
2023-01-17T05:19:26.872Z,3.70
2023-01-17T05:21:53.517Z,3.75
2023-01-17T05:24:20.064Z,3.72
2023-01-17T05:26:54.913Z,4.07
2023-01-17T05:29:22.027Z,3.90
2023-01-17T05:31:48.600Z,3.40
2023-01-17T05:34:15.186Z,3.95
2023-01-17T05:36:41.663Z,3.45
2023-01-17T05:39:08.289Z,3.38
2023-01-17T05:41:34.757Z,3.50
2023-01-17T05:44:01.313Z,3.30
2023-01-17T05:46:27.827Z,2.95
2023-01-17T05:48:54.352Z,3.70
2023-01-17T05:51:20.832Z,3.63
2023-01-17T05:53:47.339Z,3.22
2023-01-17T05:56:14.207Z,2.85
2023-01-17T06:01:07.317Z,3.60
2023-01-17T06:03:33.860Z,3.30
2023-01-17T06:06:00.394Z,3.35
2023-01-17T06:08:26.884Z,3.38
2023-01-17T06:10:53.410Z,3.03
2023-01-17T06:13:22.035Z,3.50
2023-01-17T06:15:48.998Z,3.08
2023-01-17T06:18:17.736Z,3.10
2023-01-17T06:20:44.909Z,3.45
2023-01-17T06:23:13.939Z,3.28
2023-01-17T06:25:45.633Z,3.42
2023-01-17T06:28:14.529Z,3.30
2023-01-17T06:30:41.541Z,3.40
2023-01-17T06:33:08.021Z,3.50
2023-01-17T06:35:34.555Z,3.22
2023-01-17T06:38:01.156Z,3.55
2023-01-17T06:40:29.284Z,3.88
2023-01-17T06:43:03.863Z,3.80
2023-01-17T06:45:32.267Z,3.55
2023-01-17T06:48:04.139Z,3.30
2023-01-17T06:50:31.836Z,3.67
2023-01-17T06:53:00.990Z,3.97
2023-01-17T06:55:29.469Z,3.95
2023-01-17T06:57:57.434Z,3.28
2023-01-17T07:00:24.287Z,3.88
2023-01-17T07:02:51.838Z,3.60
2023-01-17T07:05:19.006Z,3.33
2023-01-17T07:07:46.110Z,3.97
2023-01-17T07:10:14.158Z,3.88
2023-01-17T07:12:41.122Z,3.85
2023-01-17T07:15:08.325Z,3.78
2023-01-17T07:17:35.407Z,3.63
2023-01-17T07:20:01.977Z,3.75
2023-01-17T07:22:28.475Z,3.45
2023-01-17T07:24:58.639Z,4.18
2023-01-17T07:27:26.310Z,3.75
2023-01-17T07:29:54.294Z,3.38
2023-01-17T07:32:21.001Z,4.22
2023-01-17T07:34:47.549Z,3.78
2023-01-17T07:37:15.284Z,3.90
2023-01-17T07:39:42.196Z,3.92
2023-01-17T07:42:09.309Z,4.22
2023-01-17T07:44:36.050Z,3.78
2023-01-17T07:47:02.689Z,4.13
2023-01-17T07:49:29.196Z,4.18
2023-01-17T07:51:55.703Z,3.78
2023-01-17T07:54:22.252Z,4.07
2023-01-17T07:56:49.090Z,3.53
2023-01-17T08:01:42.228Z,3.60
2023-01-17T08:06:37.905Z,4.10
2023-01-17T08:09:04.372Z,4.20
2023-01-17T08:11:30.870Z,3.85
2023-01-17T08:13:59.481Z,3.78
2023-01-17T08:16:28.037Z,3.72
2023-01-17T08:18:55.447Z,3.58
2023-01-17T08:21:24.406Z,3.78
2023-01-17T08:23:52.287Z,3.50
2023-01-17T08:26:23.493Z,3.60
2023-01-17T08:29:00.622Z,4.00
2023-01-17T08:31:33.158Z,3.75
2023-01-17T08:33:59.922Z,3.75
2023-01-17T08:38:55.495Z,3.95
2023-01-17T08:41:23.811Z,3.78
2023-01-17T08:43:51.835Z,4.55
2023-01-17T08:46:19.004Z,4.38
2023-01-17T08:48:45.845Z,4.43
2023-01-17T08:53:38.840Z,4.13
2023-01-17T08:56:05.827Z,4.05
2023-01-17T08:58:33.003Z,3.80
2023-01-17T09:01:03.428Z,4.22
2023-01-17T09:03:31.485Z,4.40
2023-01-17T09:06:06.126Z,4.07
2023-01-17T09:08:33.037Z,4.13
2023-01-17T09:11:03.854Z,4.28
2023-01-17T09:13:30.326Z,4.38
2023-01-17T09:15:57.985Z,4.10
2023-01-17T09:18:28.610Z,4.75
2023-01-17T09:20:59.104Z,4.18
2023-01-17T09:23:27.876Z,4.13
2023-01-17T09:25:59.904Z,4.45
2023-01-17T09:28:27.449Z,4.18
2023-01-17T09:30:54.749Z,4.03
2023-01-17T09:33:23.258Z,4.53
2023-01-17T09:35:49.943Z,4.03
2023-01-17T09:38:17.050Z,4.35
2023-01-17T09:40:49.000Z,5.40
2023-01-17T09:43:40.042Z,3.92
2023-01-17T09:46:22.549Z,4.45
2023-01-17T09:49:02.010Z,4.22
2023-01-17T09:51:28.670Z,4.18
2023-01-17T09:53:55.487Z,3.78
2023-01-17T09:59:18.579Z,5.57
2023-01-17T10:02:02.287Z,3.75
2023-01-17T10:04:34.977Z,4.97
2023-01-17T10:07:07.808Z,4.07
2023-01-17T10:09:43.685Z,4.10
2023-01-17T10:12:31.192Z,5.05
2023-01-17T10:15:27.915Z,4.70
2023-01-17T10:18:05.411Z,3.85
2023-01-17T10:20:40.937Z,4.07
2023-01-17T10:23:13.471Z,3.72
2023-01-17T10:25:51.289Z,4.00
2023-01-17T10:28:48.764Z,3.45
2023-01-17T10:31:23.261Z,3.92
2023-01-17T10:34:00.643Z,4.40
2023-01-17T10:36:34.999Z,4.28
2023-01-17T10:39:23.188Z,4.15
2023-01-17T10:41:55.672Z,3.45
2023-01-17T10:44:41.216Z,4.28
2023-01-17T10:47:10.766Z,4.72
2023-01-17T10:49:45.053Z,3.40
2023-01-17T10:52:29.776Z,4.00
2023-01-17T10:55:18.086Z,4.05
2023-01-17T10:57:47.551Z,4.18
2023-01-17T11:00:28.860Z,3.67
2023-01-17T11:02:55.571Z,4.53
2023-01-17T11:08:05.648Z,4.13
2023-01-17T11:10:49.920Z,4.32
2023-01-17T11:13:19.355Z,3.40
2023-01-17T11:15:49.897Z,3.97
2023-01-17T11:18:19.523Z,3.72
2023-01-17T11:20:46.947Z,4.03
2023-01-17T11:23:24.499Z,3.60
2023-01-17T11:25:58.198Z,3.70
2023-01-17T11:28:34.196Z,3.63
2023-01-17T11:31:24.139Z,3.50
2023-01-17T11:34:05.282Z,3.88
2023-01-17T11:36:32.640Z,3.72
2023-01-17T11:41:28.051Z,3.37
2023-01-17T11:43:57.356Z,3.25
2023-01-17T11:46:24.594Z,3.42
2023-01-17T11:48:56.013Z,3.47
2023-01-17T11:51:25.342Z,3.40
2023-01-17T11:53:53.739Z,3.65
2023-01-17T11:56:28.033Z,3.30
2023-01-17T11:59:09.573Z,4.05
2023-01-17T12:01:58.093Z,3.13
2023-01-17T12:04:37.356Z,3.22
2023-01-17T12:07:27.092Z,5.72
2023-01-17T12:10:00.636Z,3.05
2023-01-17T12:13:00.813Z,3.40
2023-01-17T12:15:45.935Z,4.38
2023-01-17T12:18:27.148Z,3.10
2023-01-17T12:21:04.152Z,3.35
2023-01-17T12:23:45.335Z,3.65
2023-01-17T12:26:26.582Z,3.42
2023-01-17T12:29:02.762Z,3.03
2023-01-17T12:31:46.986Z,3.22
2023-01-17T12:34:23.586Z,3.00
2023-01-17T12:36:58.509Z,3.30
2023-01-17T12:39:33.714Z,3.50
2023-01-17T12:42:08.953Z,2.85
2023-01-17T12:44:59.155Z,3.58
2023-01-17T12:47:25.797Z,3.20
2023-01-17T12:50:06.658Z,4.07
2023-01-17T12:52:48.462Z,3.05
2023-01-17T12:55:21.061Z,3.25
2023-01-17T12:58:01.218Z,4.10
2023-01-17T13:00:30.065Z,3.33
2023-01-17T13:03:07.689Z,3.88
2023-01-17T13:05:38.368Z,3.15
2023-01-17T13:08:42.394Z,3.22
2023-01-17T13:11:21.239Z,3.10
2023-01-17T13:13:51.479Z,3.72
2023-01-17T13:16:24.377Z,3.67
2023-01-17T13:18:52.261Z,3.15
2023-01-17T13:21:21.734Z,3.38
2023-01-17T13:23:59.105Z,3.55
2023-01-17T13:29:32.719Z,3.35
2023-01-17T13:32:20.806Z,3.13
2023-01-17T13:35:12.058Z,3.42
2023-01-17T13:37:55.893Z,4.88
2023-01-17T13:40:29.872Z,3.35
2023-01-17T13:43:03.479Z,6.05
2023-01-17T13:45:35.898Z,4.13
2023-01-17T13:48:14.695Z,3.38
2023-01-17T13:50:41.195Z,3.05
2023-01-17T13:53:35.814Z,5.38
2023-01-17T13:56:22.515Z,3.00
2023-01-17T13:58:50.308Z,3.13
2023-01-17T14:01:22.956Z,4.90
2023-01-17T14:03:49.470Z,3.30
2023-01-17T14:06:46.074Z,3.10
2023-01-17T14:09:12.609Z,3.10
2023-01-17T14:11:54.150Z,2.83
2023-01-17T14:14:45.553Z,4.20
2023-01-17T14:17:28.133Z,3.70
2023-01-17T14:20:00.274Z,3.97
2023-01-17T14:22:36.568Z,3.75
2023-01-17T14:25:11.762Z,3.17
2023-01-17T14:27:50.471Z,3.60
2023-01-17T14:30:17.501Z,3.20
2023-01-17T14:32:59.053Z,3.45
2023-01-17T14:35:34.803Z,3.88
2023-01-17T14:38:03.404Z,3.42
2023-01-17T14:40:33.098Z,3.33
2023-01-17T14:43:06.927Z,2.90
2023-01-17T14:45:35.773Z,3.33
2023-01-17T14:48:14.336Z,3.20
2023-01-17T14:50:43.542Z,2.85
2023-01-17T14:53:13.107Z,3.65
2023-01-17T14:55:48.412Z,3.40
2023-01-17T14:58:19.598Z,4.22
2023-01-17T15:00:49.319Z,3.45
2023-01-17T15:03:16.837Z,3.63
2023-01-17T15:05:47.207Z,3.78
2023-01-17T15:08:16.749Z,4.80
2023-01-17T15:11:05.381Z,4.03
2023-01-17T15:13:45.234Z,6.95
2023-01-17T15:16:27.993Z,5.78
2023-01-17T15:18:55.697Z,4.57
2023-01-17T15:21:24.832Z,4.85
2023-01-17T15:24:04.098Z,6.30
2023-01-17T15:26:34.871Z,5.05
2023-01-17T15:29:06.577Z,7.85
2023-01-17T15:31:42.621Z,11.45
2023-01-17T15:34:16.798Z,8.68
2023-01-17T15:36:47.733Z,4.88
2023-01-17T15:39:23.139Z,5.28
2023-01-17T15:41:54.826Z,4.25
2023-01-17T15:44:46.392Z,16.20
2023-01-17T15:47:35.505Z,10.95
2023-01-17T15:50:21.271Z,7.57
2023-01-17T15:52:52.728Z,6.95
2023-01-17T15:55:22.623Z,7.15
2023-01-17T15:57:49.655Z,6.43
2023-01-17T16:00:24.141Z,9.00
2023-01-17T16:02:55.867Z,6.05
2023-01-17T16:05:23.126Z,8.73
2023-01-17T16:07:50.858Z,9.55
2023-01-17T16:10:18.790Z,21.73
2023-01-17T16:12:46.548Z,15.88
2023-01-17T16:15:15.346Z,29.88
2023-01-17T16:17:47.414Z,15.95
2023-01-17T16:20:19.318Z,37.33
2023-01-17T16:22:47.328Z,34.90
2023-01-17T16:25:19.930Z,23.23
2023-01-17T16:27:47.276Z,14.80
2023-01-17T16:30:19.416Z,12.02
2023-01-17T16:32:48.595Z,13.70
2023-01-17T16:35:20.805Z,13.50
2023-01-17T16:37:56.013Z,11.43
2023-01-17T16:40:25.038Z,11.52
2023-01-17T16:42:51.700Z,11.57
2023-01-17T16:45:18.953Z,12.27
2023-01-17T16:47:47.666Z,10.55
2023-01-17T16:50:16.967Z,10.13
2023-01-17T16:52:43.529Z,6.80
2023-01-17T16:55:13.025Z,8.20
2023-01-17T16:57:39.608Z,7.35
2023-01-17T17:00:06.801Z,7.18
2023-01-17T17:02:33.618Z,7.82
2023-01-17T17:07:26.766Z,14.00
2023-01-17T17:09:53.347Z,13.02
2023-01-17T17:12:19.850Z,8.77
2023-01-17T17:14:46.336Z,8.77
2023-01-17T17:17:12.816Z,8.07
2023-01-17T17:19:39.762Z,7.68
2023-01-17T17:22:06.724Z,8.95
2023-01-17T17:24:33.596Z,20.92
2023-01-17T17:29:26.626Z,11.10
2023-01-17T17:31:53.893Z,10.38
2023-01-17T17:34:20.885Z,10.00
2023-01-17T17:36:47.448Z,9.45
2023-01-17T17:41:51.547Z,7.93
2023-01-17T17:44:18.135Z,7.72
2023-01-17T17:46:45.753Z,6.60
2023-01-17T17:49:12.273Z,7.47
2023-01-17T17:51:40.503Z,6.38
2023-01-17T17:54:10.185Z,7.15
2023-01-17T17:56:37.626Z,7.70
2023-01-17T17:59:06.243Z,10.10
2023-01-17T18:01:33.144Z,11.82
2023-01-17T18:04:03.117Z,9.75
2023-01-17T18:06:30.052Z,10.57
2023-01-17T18:08:56.713Z,8.63
2023-01-17T18:11:26.121Z,9.05
2023-01-17T18:13:54.931Z,10.68
2023-01-17T18:16:27.750Z,10.13
2023-01-17T18:18:56.299Z,10.25
2023-01-17T18:21:25.528Z,13.43
2023-01-17T18:23:54.126Z,20.02
2023-01-17T18:26:23.979Z,16.15
2023-01-17T18:28:55.284Z,24.08
2023-01-17T18:31:24.077Z,17.55
2023-01-17T18:33:51.779Z,13.90
2023-01-17T18:36:18.443Z,10.65
2023-01-17T18:38:46.758Z,9.85
2023-01-17T18:41:35.660Z,9.40
2023-01-17T18:44:05.998Z,7.70
2023-01-17T18:46:33.533Z,8.38
2023-01-17T18:49:00.536Z,8.02
2023-01-17T18:51:29.753Z,9.27
2023-01-17T18:53:56.364Z,10.30
2023-01-17T18:56:23.150Z,9.65
2023-01-17T18:58:50.610Z,7.72
2023-01-17T19:01:21.143Z,16.60
2023-01-17T19:03:49.916Z,9.75
2023-01-17T19:06:24.595Z,11.60
2023-01-17T19:08:54.369Z,12.95
2023-01-17T19:11:22.619Z,13.65
2023-01-17T19:13:50.394Z,14.18
2023-01-17T19:16:26.489Z,12.80
2023-01-17T19:18:53.867Z,11.68
2023-01-17T19:21:22.647Z,9.82
2023-01-17T19:23:50.620Z,10.18
2023-01-17T19:26:19.874Z,9.80
2023-01-17T19:28:48.559Z,9.50
2023-01-17T19:31:18.597Z,8.73
2023-01-17T19:33:46.930Z,8.80
2023-01-17T19:36:18.545Z,8.23
2023-01-17T19:38:58.708Z,8.45
2023-01-17T19:41:30.513Z,8.38
2023-01-17T19:44:02.067Z,7.45
2023-01-17T19:46:29.247Z,7.80
2023-01-17T19:48:57.149Z,8.23
2023-01-17T19:51:24.479Z,8.65
2023-01-17T19:53:51.259Z,7.88
2023-01-17T19:58:46.451Z,7.28
2023-01-17T20:01:15.940Z,7.70
2023-01-17T20:03:46.766Z,8.20
2023-01-17T20:06:15.453Z,7.38
2023-01-17T20:08:42.078Z,8.10
2023-01-17T20:11:11.519Z,7.10
2023-01-17T20:13:38.022Z,9.10
2023-01-17T20:16:06.900Z,9.45
2023-01-17T20:18:34.631Z,9.90
2023-01-17T20:21:08.489Z,8.93
2023-01-17T20:23:38.433Z,7.68
2023-01-17T20:26:06.216Z,7.32
2023-01-17T20:28:35.760Z,7.10
2023-01-17T20:31:07.779Z,7.00
2023-01-17T20:33:35.337Z,7.60
2023-01-17T20:36:10.724Z,6.75
2023-01-17T20:38:45.162Z,7.85
2023-01-17T20:41:18.959Z,7.30
2023-01-17T20:43:48.374Z,7.25
2023-01-17T20:46:15.708Z,7.57
2023-01-17T20:48:50.726Z,7.28
2023-01-17T20:51:19.069Z,7.95
2023-01-17T20:53:47.170Z,6.47
2023-01-17T20:56:15.400Z,7.95
2023-01-17T20:58:42.231Z,10.38
2023-01-17T21:03:37.785Z,10.82
2023-01-17T21:06:10.059Z,10.27
2023-01-17T21:08:39.412Z,10.70
2023-01-17T21:11:07.984Z,12.00
2023-01-17T21:13:35.267Z,11.07
2023-01-17T21:16:02.589Z,11.68
2023-01-17T21:18:32.794Z,11.38
2023-01-17T21:21:12.350Z,10.38
2023-01-17T21:23:41.586Z,8.50
2023-01-17T21:26:10.933Z,8.85
2023-01-17T21:28:39.730Z,8.70
2023-01-17T21:31:18.162Z,7.53
2023-01-17T21:33:45.172Z,7.82
2023-01-17T21:36:12.068Z,7.05
2023-01-17T21:38:39.123Z,7.68
2023-01-17T21:41:05.846Z,8.23
2023-01-17T21:43:32.462Z,9.45
2023-01-17T21:46:02.908Z,10.40
2023-01-17T21:48:29.529Z,8.75
2023-01-17T21:50:56.066Z,9.90
